首页
METAR-TAF:

METAR-TAF

机场 :

Greenville Downtown Airport

格林维尔, 南卡罗来纳州, 美国

纬度: 34-50-46N, 经度: 082-20-46W, 海拔: 319米

当前天气观测

该预报发布于38分钟前的09:53 UTC
风速3节,风向北转东北
温度 4°C
湿度 93%
气压 1022 hPa
能見度: 16.1公里
阴天层高于8500英尺
小雨

METAR: KGMU 150953Z AUTO 03003KT 10SM -RA OVC085 04/03 A3017 RMK AO2 SLP221 P0001 T00440028

时间: 05:31 (10:31 UTC)

预报

该预报发布于3小时和3分钟前的07:28 UTC
预报有效从15日的 07点(UTC)到 16日的 06点(UTC)
风速6节,风向北转东北
能見度: 10公里
散云层高于2500英尺
阴天层高于4000英尺
小阵雨
从 15日的 1500点(UTC)
风速10节,风向北转东北,有时为17节阵风
能見度: 10公里
散云层高于3000英尺
多云层高于6000英尺
附近有阵雨

TAF: KGMU 150728Z 1507/1606 02006KT P6SM -SHRA SCT025 OVC040 FM151500 03010G17KT P6SM VCSH SCT030 BKN060

超过4000个机场的气象观测和天气预报(METAR&TAF报告)。

可查询的气象台以黄色和红色小点在地图上表示。

将鼠标移到小点上方,可查看气象台名称。

然后点击查看天气观测和预报。

如需切换地图:点击带黑十字的绿色按钮放大地图;点击带横线的绿色按钮缩小地图;或者点击绿色箭头查看邻近地区的地图。


METAR-TAF: